Terminal Aerodrome Forecast
Issued by NWS

Current Version | Previous Version | Text Only | Print | Product List | Glossary Off
Versions: 1 2 3 4 5 6 7 8 9 10 11 12 13 14 15 16 17

000
FTUS41 KILN 211100
TAFLCK
TAF
KLCK 211120Z 2112/2212 17003KT P6SM SCT200
     FM211500 21008KT P6SM BKN150
     FM211900 23013KT P6SM FEW060 BKN150
     FM220500 23009KT P6SM VCSH OVC080
     FM220900 24011KT P6SM -SHRA SCT015 OVC080=

USA.gov is the U.S. government's official web portal to all federal, state and local government web resources and services.